Cambria Heights, New York
Current Conditions -  °F | °C
As of 5:35 AM on Wednesday 22 Oct 2014 (Local Time) from KJFK Reporting Station
Thunderstorm Thunderstorm  
Wind Chill: 57°   Ceiling: 1200
Heat Index: 57°   Visibility: 10mi
Dew Point: 54°   Wind: 14mph
Humidity: 88%   Direction: 360°N
Pressure: 29.89"   Gusts: NA
Location:  40.69°N, 73.74°W
Report Text: KJFK 220935Z 36012KT 10SM -TSRA BKN012 OVC042CB 14/12 A2989 RMK AO2 OCNL LTGICCA SE-S AND NW TS SE-S AND NW MOV W P0002 $
Loading
Personal Weather Stations






























Interactive Weather Map
Tropical Storm Tracking
New forecast layout! Learn more

10-Day Weather Forecast

Advertisements
Track Severe Weather on mobile